Time;durP1;ratioP1;P1;durP2;ratioP2;P2;SDS_P1;SDS_P2;PMS_P1;PMS_P2;Temp;Humidity;BMP_temperature;BMP_pressure;BME280_temperature;BME280_humidity;BME280_pressure;Samples;Min_cycle;Max_cycle;Signal;HPM_P1;HPM_P2
2023/09/11 00:01:01;;;;;;;;;;;19.00;99.90;;;;;;5083153;28;19987;-73
2023/09/11 00:03:27;;;;;;;;;;;19.00;99.90;;;;;;5082452;28;19924;-74
2023/09/11 00:06:02;;;;;;;;;;;19.00;99.90;;;;;;5082144;28;19987;-74
2023/09/11 00:08:29;;;;;;;;;;;19.00;99.90;;;;;;5082134;28;20410;-73
2023/09/11 00:10:55;;;;;;;;;;;19.00;99.90;;;;;;5082951;28;19926;-73
2023/09/11 00:13:22;;;;;;;;;;;19.00;99.90;;;;;;5082511;28;19920;-73
2023/09/11 00:15:50;;;;;;;;;;;18.90;99.90;;;;;;5083909;28;20176;-73
2023/09/11 00:18:17;;;;;;;;;;;18.80;99.90;;;;;;5085984;28;19976;-73
2023/09/11 00:20:43;;;;;;;;;;;18.80;99.90;;;;;;5086169;28;19927;-73
2023/09/11 00:23:10;;;;;;;;;;;18.70;99.90;;;;;;5086160;28;19988;-73
2023/09/11 00:25:36;;;;;;;;;;;18.70;99.90;;;;;;5089758;28;19920;-72
2023/09/11 00:28:03;;;;;;;;;;;18.70;99.90;;;;;;5086015;28;19927;-73
2023/09/11 00:30:30;;;;;;;;;;;18.60;99.90;;;;;;5086322;28;19942;-73
2023/09/11 00:32:58;;;;;;;;;;;18.60;99.90;;;;;;5085860;28;20202;-73
2023/09/11 00:35:24;;;;;;;;;;;18.60;99.90;;;;;;5084547;28;20174;-72
2023/09/11 00:37:51;;;;;;;;;;;18.50;99.90;;;;;;5086182;28;20151;-73
2023/09/11 00:40:18;;;;;;;;;;;18.50;99.90;;;;;;5086039;28;19987;-73
2023/09/11 00:42:44;;;;;;;;;;;18.50;99.90;;;;;;5085770;28;19986;-72
2023/09/11 00:45:12;;;;;;;;;;;18.50;99.90;;;;;;5085510;28;20217;-72
2023/09/11 00:47:39;;;;;;;;;;;18.40;99.90;;;;;;5086083;28;20113;-73
2023/09/11 00:50:08;;;;;;;;;;;18.40;99.90;;;;;;5085401;28;19983;-73
2023/09/11 00:52:34;;;;;;;;;;;18.40;99.90;;;;;;5078687;28;19991;-73
2023/09/11 00:55:02;;;;;;;;;;;18.30;99.90;;;;;;5085577;28;19920;-73
2023/09/11 00:57:29;;;;;;;;;;;18.30;99.90;;;;;;5085888;28;19939;-73
2023/09/11 00:59:55;;;;;;;;;;;18.30;99.90;;;;;;5085743;28;20253;-72
2023/09/11 01:02:22;;;;;;;;;;;18.30;99.90;;;;;;5085419;28;19979;-72
2023/09/11 01:04:49;;;;;;;;;;;18.30;99.90;;;;;;5085184;28;19988;-73
2023/09/11 01:07:17;;;;;;;;;;;18.30;99.90;;;;;;5085673;28;19960;-73
2023/09/11 01:09:44;;;;;;;;;;;18.30;99.90;;;;;;5085180;28;19980;-72
2023/09/11 01:12:11;;;;;;;;;;;18.20;99.90;;;;;;5085231;28;19974;-73
2023/09/11 01:14:38;;;;;;;;;;;18.10;99.90;;;;;;5085057;28;19920;-73
2023/09/11 01:17:08;;;;;;;;;;;18.10;99.90;;;;;;5084967;28;19928;-73
2023/09/11 01:19:45;;;;;;;;;;;18.10;99.90;;;;;;5084591;28;20225;-73
2023/09/11 01:22:23;;;;;;;;;;;18.10;99.90;;;;;;5084948;28;19962;-73
2023/09/11 01:25:07;;;;;;;;;;;18.10;99.90;;;;;;5085091;28;20109;-72
2023/09/11 01:27:57;;;;;;;;;;;18.00;99.90;;;;;;5081901;28;20284;-72
2023/09/11 01:30:26;;;;;;;;;;;18.00;99.90;;;;;;5085070;28;19920;-72
2023/09/11 01:32:53;;;;;;;;;;;17.90;99.90;;;;;;5080353;28;19967;-73
2023/09/11 01:35:20;;;;;;;;;;;17.90;99.90;;;;;;5084461;28;19991;-73
2023/09/11 01:37:47;;;;;;;;;;;17.90;99.90;;;;;;5084765;28;19928;-72
2023/09/11 01:40:14;;;;;;;;;;;17.80;99.90;;;;;;5084749;28;19959;-73
2023/09/11 01:42:41;;;;;;;;;;;17.80;99.90;;;;;;5084626;28;20004;-72
2023/09/11 01:45:09;;;;;;;;;;;17.80;99.90;;;;;;5084627;28;19925;-73
2023/09/11 01:47:37;;;;;;;;;;;17.80;99.90;;;;;;5078103;28;19948;-73
2023/09/11 01:50:05;;;;;;;;;;;17.80;99.90;;;;;;5084431;28;20278;-72
2023/09/11 01:52:32;;;;;;;;;;;17.80;99.90;;;;;;5084660;28;19960;-73
2023/09/11 01:54:59;;;;;;;;;;;17.70;99.90;;;;;;5083915;28;20252;-74
2023/09/11 01:57:26;;;;;;;;;;;17.70;99.90;;;;;;5083255;28;19968;-73
2023/09/11 01:59:53;;;;;;;;;;;17.70;99.90;;;;;;5084664;28;19927;-73
2023/09/11 02:02:19;;;;;;;;;;;17.70;99.90;;;;;;5084225;28;20126;-73
2023/09/11 02:04:47;;;;;;;;;;;17.70;99.90;;;;;;5084342;28;19935;-73
2023/09/11 02:07:14;;;;;;;;;;;17.70;99.90;;;;;;5084292;28;20007;-72
2023/09/11 02:09:41;;;;;;;;;;;17.60;99.90;;;;;;5083532;28;19952;-73
2023/09/11 02:12:07;;;;;;;;;;;17.60;99.90;;;;;;5084192;28;19921;-73
2023/09/11 02:14:34;;;;;;;;;;;17.50;99.90;;;;;;5084262;28;19947;-73
2023/09/11 02:17:02;;;;;;;;;;;17.60;99.90;;;;;;5083889;28;19948;-73
2023/09/11 02:19:29;;;;;;;;;;;17.50;99.90;;;;;;5083782;28;20247;-73
2023/09/11 02:21:57;;;;;;;;;;;17.50;99.90;;;;;;5084221;28;19987;-72
2023/09/11 02:24:24;;;;;;;;;;;17.50;99.90;;;;;;5083790;28;19952;-73
2023/09/11 02:26:51;;;;;;;;;;;17.40;99.90;;;;;;5083960;28;19920;-73
2023/09/11 02:29:17;;;;;;;;;;;17.40;99.90;;;;;;5083905;28;19927;-73
2023/09/11 02:31:44;;;;;;;;;;;17.40;99.90;;;;;;5083689;28;20214;-73
2023/09/11 02:34:10;;;;;;;;;;;17.40;99.90;;;;;;5083748;28;19987;-73
2023/09/11 02:36:37;;;;;;;;;;;17.30;99.90;;;;;;5084006;28;19920;-73
2023/09/11 02:39:05;;;;;;;;;;;17.30;99.90;;;;;;5083352;28;19942;-73
2023/09/11 02:41:32;;;;;;;;;;;17.30;99.90;;;;;;5083813;28;19972;-73
2023/09/11 02:43:58;;;;;;;;;;;17.30;99.90;;;;;;5083386;28;19920;-73
2023/09/11 02:46:25;;;;;;;;;;;17.30;99.90;;;;;;5083728;28;19921;-73
2023/09/11 02:48:52;;;;;;;;;;;17.20;99.90;;;;;;5083368;28;19951;-72
2023/09/11 02:51:19;;;;;;;;;;;17.20;99.90;;;;;;5083493;28;20232;-73
2023/09/11 02:53:45;;;;;;;;;;;17.10;99.90;;;;;;5083080;28;19921;-73
2023/09/11 02:56:13;;;;;;;;;;;17.10;99.90;;;;;;5083520;28;19920;-73
2023/09/11 02:58:40;;;;;;;;;;;17.10;99.90;;;;;;5082572;28;19928;-73
2023/09/11 03:01:06;;;;;;;;;;;17.10;99.90;;;;;;5083238;28;20468;-73
2023/09/11 03:03:33;;;;;;;;;;;17.00;99.90;;;;;;5083329;28;20260;-73
2023/09/11 03:06:00;;;;;;;;;;;17.00;99.90;;;;;;5083249;28;19983;-73
2023/09/11 03:08:27;;;;;;;;;;;17.00;99.90;;;;;;5083509;28;20220;-73
2023/09/11 03:10:54;;;;;;;;;;;17.00;99.90;;;;;;5083527;28;20256;-73
2023/09/11 03:13:22;;;;;;;;;;;17.00;99.90;;;;;;5083580;28;19999;-73
2023/09/11 03:15:48;;;;;;;;;;;16.90;99.90;;;;;;5083413;28;19920;-73
2023/09/11 03:18:15;;;;;;;;;;;16.90;99.90;;;;;;5083191;28;19983;-73
2023/09/11 03:20:41;;;;;;;;;;;17.00;99.90;;;;;;5083681;28;19987;-73
2023/09/11 03:23:08;;;;;;;;;;;16.90;99.90;;;;;;5083392;28;19921;-73
2023/09/11 03:25:35;;;;;;;;;;;16.80;99.90;;;;;;5076583;28;19920;-73
2023/09/11 03:28:02;;;;;;;;;;;16.80;99.90;;;;;;5083249;28;19920;-72
2023/09/11 03:30:30;;;;;;;;;;;16.80;99.90;;;;;;5083354;28;20153;-73
2023/09/11 03:32:56;;;;;;;;;;;16.70;99.90;;;;;;5083371;28;20144;-72
2023/09/11 03:35:24;;;;;;;;;;;16.70;99.90;;;;;;5083404;28;19921;-73
2023/09/11 03:37:50;;;;;;;;;;;16.70;99.90;;;;;;5083470;28;19921;-73
2023/09/11 03:40:20;;;;;;;;;;;16.70;99.90;;;;;;5083305;28;19952;-73
2023/09/11 03:42:46;;;;;;;;;;;16.70;99.90;;;;;;5083421;28;19958;-73
2023/09/11 03:45:13;;;;;;;;;;;16.70;99.90;;;;;;5082921;28;19947;-73
2023/09/11 03:47:41;;;;;;;;;;;16.60;99.90;;;;;;5083372;28;19920;-73
2023/09/11 03:50:08;;;;;;;;;;;16.60;99.90;;;;;;5082873;28;20154;-73
2023/09/11 03:52:34;;;;;;;;;;;16.60;99.90;;;;;;5087101;28;19927;-73
2023/09/11 03:55:02;;;;;;;;;;;16.60;99.90;;;;;;5086547;28;19983;-73
2023/09/11 03:57:28;;;;;;;;;;;16.60;99.90;;;;;;5087097;28;20023;-73
2023/09/11 03:59:55;;;;;;;;;;;16.60;99.90;;;;;;5086816;28;20252;-73
2023/09/11 04:02:21;;;;;;;;;;;16.60;99.90;;;;;;5086583;28;19984;-72
2023/09/11 04:04:49;;;;;;;;;;;16.60;99.90;;;;;;5086657;28;19927;-73
2023/09/11 04:07:16;;;;;;;;;;;16.50;99.90;;;;;;5086689;28;19987;-73
2023/09/11 04:09:42;;;;;;;;;;;16.50;99.90;;;;;;5086441;28;19921;-73
2023/09/11 04:12:14;;;;;;;;;;;16.50;99.90;;;;;;5086396;28;19928;-74
2023/09/11 04:14:40;;;;;;;;;;;16.50;99.90;;;;;;5086263;28;20237;-73
2023/09/11 04:17:10;;;;;;;;;;;16.50;99.90;;;;;;5086604;28;19955;-74
2023/09/11 04:19:37;;;;;;;;;;;16.40;99.90;;;;;;5086553;28;20088;-72
2023/09/11 04:22:05;;;;;;;;;;;16.40;99.90;;;;;;5086522;28;19983;-74
2023/09/11 04:24:32;;;;;;;;;;;16.40;99.90;;;;;;5086203;28;20168;-74
2023/09/11 04:26:58;;;;;;;;;;;16.40;99.90;;;;;;5086196;28;19988;-74
2023/09/11 04:29:25;;;;;;;;;;;16.40;99.90;;;;;;5085152;28;19920;-74
2023/09/11 04:31:52;;;;;;;;;;;16.30;99.90;;;;;;5086279;28;19955;-73
2023/09/11 04:34:19;;;;;;;;;;;16.30;99.90;;;;;;5085766;28;20367;-74
2023/09/11 04:36:45;;;;;;;;;;;16.30;99.90;;;;;;5086053;28;19920;-74
2023/09/11 04:39:13;;;;;;;;;;;16.30;99.90;;;;;;5086190;28;19920;-74
2023/09/11 04:41:40;;;;;;;;;;;16.30;99.90;;;;;;5086175;28;19920;-74
2023/09/11 04:44:07;;;;;;;;;;;16.20;99.90;;;;;;5086090;28;19963;-74
2023/09/11 04:46:33;;;;;;;;;;;16.20;99.90;;;;;;5086364;28;19945;-72
2023/09/11 04:49:00;;;;;;;;;;;16.20;99.90;;;;;;5085868;28;19991;-73
2023/09/11 04:51:26;;;;;;;;;;;16.20;99.90;;;;;;5086180;28;19931;-73
2023/09/11 04:53:53;;;;;;;;;;;16.20;99.90;;;;;;5085586;28;20387;-73
2023/09/11 04:56:21;;;;;;;;;;;16.10;99.90;;;;;;5086014;28;19932;-73
2023/09/11 04:58:48;;;;;;;;;;;16.10;99.90;;;;;;5085999;28;19951;-73
2023/09/11 05:01:14;;;;;;;;;;;16.10;99.90;;;;;;5085584;28;20110;-72
2023/09/11 05:03:41;;;;;;;;;;;16.10;99.90;;;;;;5084358;28;19966;-72
2023/09/11 05:06:08;;;;;;;;;;;16.20;99.90;;;;;;5085118;28;20288;-73
2023/09/11 05:08:34;;;;;;;;;;;16.20;99.90;;;;;;5085563;28;20153;-72
2023/09/11 05:11:02;;;;;;;;;;;16.10;99.90;;;;;;5085691;28;19921;-72
2023/09/11 05:13:30;;;;;;;;;;;16.10;99.90;;;;;;5085649;28;19921;-72
2023/09/11 05:15:56;;;;;;;;;;;16.10;99.90;;;;;;5085801;28;19983;-72
2023/09/11 05:18:23;;;;;;;;;;;16.10;99.90;;;;;;5085617;28;20193;-72
2023/09/11 05:20:50;;;;;;;;;;;16.20;99.90;;;;;;5085652;28;19987;-72
2023/09/11 05:23:17;;;;;;;;;;;16.10;99.90;;;;;;5085521;28;19921;-71
2023/09/11 05:25:44;;;;;;;;;;;16.00;99.90;;;;;;5085420;28;19983;-72
2023/09/11 05:28:10;;;;;;;;;;;16.00;99.90;;;;;;5085347;28;19983;-72
2023/09/11 05:30:39;;;;;;;;;;;16.00;99.90;;;;;;5085324;28;20236;-71
2023/09/11 05:33:05;;;;;;;;;;;16.00;99.90;;;;;;5084976;28;19987;-72
2023/09/11 05:35:32;;;;;;;;;;;16.00;99.90;;;;;;5084907;28;20260;-72
2023/09/11 05:37:59;;;;;;;;;;;16.00;99.90;;;;;;5085201;28;19920;-73
2023/09/11 05:40:25;;;;;;;;;;;16.00;99.90;;;;;;5085319;28;19921;-73
2023/09/11 05:42:52;;;;;;;;;;;16.00;99.90;;;;;;5085127;28;20095;-72
2023/09/11 05:45:19;;;;;;;;;;;16.10;99.90;;;;;;5084821;28;19920;-73
2023/09/11 05:47:46;;;;;;;;;;;16.10;99.90;;;;;;5084546;28;19987;-72
2023/09/11 05:50:14;;;;;;;;;;;16.10;99.90;;;;;;5084640;28;20237;-72
2023/09/11 05:52:41;;;;;;;;;;;16.20;99.90;;;;;;5084943;28;19921;-72
2023/09/11 05:55:08;;;;;;;;;;;16.20;99.90;;;;;;5084481;28;19921;-72
2023/09/11 05:57:34;;;;;;;;;;;16.30;99.90;;;;;;5084673;28;19927;-72
2023/09/11 06:00:01;;;;;;;;;;;16.30;99.90;;;;;;5084835;28;19920;-72
2023/09/11 06:02:28;;;;;;;;;;;16.30;99.90;;;;;;5084478;28;19924;-72
2023/09/11 06:04:56;;;;;;;;;;;16.30;99.90;;;;;;5082678;28;19984;-72
2023/09/11 06:07:22;;;;;;;;;;;16.30;99.90;;;;;;5083175;28;19984;-72
2023/09/11 06:09:49;;;;;;;;;;;16.30;99.90;;;;;;5078244;28;19980;-73
2023/09/11 06:12:16;;;;;;;;;;;16.30;99.90;;;;;;5084131;28;19920;-73
2023/09/11 06:14:43;;;;;;;;;;;16.40;99.90;;;;;;5083054;28;19926;-72
2023/09/11 06:17:10;;;;;;;;;;;16.50;99.90;;;;;;5084153;28;19991;-72
2023/09/11 06:19:37;;;;;;;;;;;16.50;99.90;;;;;;5083997;28;19979;-72
2023/09/11 06:22:05;;;;;;;;;;;16.60;99.90;;;;;;5084246;28;19920;-72
2023/09/11 06:24:32;;;;;;;;;;;16.60;99.90;;;;;;5083980;28;19982;-72
2023/09/11 06:27:06;;;;;;;;;;;16.70;99.90;;;;;;5084076;28;19920;-72
2023/09/11 06:29:33;;;;;;;;;;;16.70;99.90;;;;;;5077717;28;19992;-73
2023/09/11 06:32:00;;;;;;;;;;;16.80;99.90;;;;;;5084150;28;19988;-72
2023/09/11 06:34:29;;;;;;;;;;;16.80;99.90;;;;;;5082525;28;19979;-72
2023/09/11 06:36:56;;;;;;;;;;;16.90;99.90;;;;;;5083926;28;19921;-73
2023/09/11 06:39:24;;;;;;;;;;;17.00;99.90;;;;;;5083788;28;19979;-73
2023/09/11 06:41:51;;;;;;;;;;;17.00;99.90;;;;;;5083843;28;19958;-72
2023/09/11 06:44:17;;;;;;;;;;;17.10;99.90;;;;;;5083413;28;20236;-72
2023/09/11 06:46:44;;;;;;;;;;;17.20;99.90;;;;;;5083936;28;19931;-73
2023/09/11 06:49:10;;;;;;;;;;;17.20;99.90;;;;;;5083450;28;20242;-73
2023/09/11 06:51:37;;;;;;;;;;;17.30;99.90;;;;;;5083922;28;19980;-73
2023/09/11 06:54:07;;;;;;;;;;;17.40;99.90;;;;;;5083231;28;20264;-73
2023/09/11 06:56:35;;;;;;;;;;;17.50;99.90;;;;;;5077520;28;19928;-72
2023/09/11 06:59:02;;;;;;;;;;;17.60;99.90;;;;;;5083655;28;19966;-72
2023/09/11 07:01:29;;;;;;;;;;;17.70;99.90;;;;;;5083572;28;20113;-73
2023/09/11 07:03:56;;;;;;;;;;;17.80;99.90;;;;;;5083396;28;20265;-72
2023/09/11 07:06:23;;;;;;;;;;;17.80;99.90;;;;;;5083546;28;19988;-73
2023/09/11 07:08:49;;;;;;;;;;;17.90;99.90;;;;;;5083270;28;19920;-73
2023/09/11 07:11:16;;;;;;;;;;;18.00;99.90;;;;;;5083698;28;19983;-73
2023/09/11 07:13:44;;;;;;;;;;;18.20;99.90;;;;;;5083064;28;19956;-72
2023/09/11 07:16:11;;;;;;;;;;;18.20;99.90;;;;;;5083266;28;19920;-72
2023/09/11 07:18:37;;;;;;;;;;;18.30;99.90;;;;;;5083165;28;20235;-72
2023/09/11 07:21:04;;;;;;;;;;;18.50;99.90;;;;;;5083363;28;19927;-73
2023/09/11 07:23:31;;;;;;;;;;;18.60;99.90;;;;;;5082984;28;20213;-72
2023/09/11 07:25:58;;;;;;;;;;;18.80;99.90;;;;;;5086490;28;19983;-71
2023/09/11 07:28:26;;;;;;;;;;;18.90;99.90;;;;;;5087267;28;19926;-72
2023/09/11 07:30:54;;;;;;;;;;;19.00;99.90;;;;;;5087368;28;20117;-71
2023/09/11 07:33:21;;;;;;;;;;;19.10;99.90;;;;;;5087379;28;19956;-72
2023/09/11 07:35:48;;;;;;;;;;;19.20;99.90;;;;;;5086985;28;19959;-72
2023/09/11 07:38:14;;;;;;;;;;;19.40;99.90;;;;;;5086710;28;19928;-71
2023/09/11 07:40:41;;;;;;;;;;;19.50;99.90;;;;;;5082946;28;19928;-71
2023/09/11 07:43:08;;;;;;;;;;;19.70;99.90;;;;;;5086729;28;19951;-72
2023/09/11 07:45:35;;;;;;;;;;;19.80;99.90;;;;;;5086856;28;20095;-71
2023/09/11 07:48:03;;;;;;;;;;;19.90;99.90;;;;;;5087060;28;19920;-71
2023/09/11 07:50:29;;;;;;;;;;;20.10;99.90;;;;;;5083387;28;20099;-72
2023/09/11 07:52:56;;;;;;;;;;;20.20;99.90;;;;;;5087106;28;19920;-72
2023/09/11 07:55:23;;;;;;;;;;;20.30;99.90;;;;;;5083407;28;20117;-72
2023/09/11 07:57:49;;;;;;;;;;;20.40;99.90;;;;;;5086941;28;19952;-74
2023/09/11 08:00:16;;;;;;;;;;;20.60;99.90;;;;;;5087101;28;20003;-73
2023/09/11 08:02:42;;;;;;;;;;;20.80;99.90;;;;;;5086890;28;19954;-73
2023/09/11 08:05:10;;;;;;;;;;;20.90;99.90;;;;;;5086384;28;20285;-72
2023/09/11 08:07:37;;;;;;;;;;;21.00;99.90;;;;;;5086771;28;19924;-73
2023/09/11 08:10:04;;;;;;;;;;;21.10;99.90;;;;;;5086466;28;19920;-74
2023/09/11 08:12:32;;;;;;;;;;;21.30;99.90;;;;;;5086939;28;19952;-73
2023/09/11 08:14:59;;;;;;;;;;;21.30;99.90;;;;;;5085444;28;19991;-73
2023/09/11 08:17:27;;;;;;;;;;;21.40;99.90;;;;;;5082750;28;19987;-73
2023/09/11 08:19:54;;;;;;;;;;;21.50;99.90;;;;;;5086695;28;19928;-72
2023/09/11 08:22:22;;;;;;;;;;;21.60;99.90;;;;;;5086576;28;19928;-73
2023/09/11 08:24:48;;;;;;;;;;;21.70;99.90;;;;;;5086305;28;19947;-72
2023/09/11 08:27:15;;;;;;;;;;;21.90;99.90;;;;;;5086223;28;19988;-72
2023/09/11 08:29:42;;;;;;;;;;;21.90;99.90;;;;;;5086181;28;19987;-72
2023/09/11 08:32:08;;;;;;;;;;;22.10;99.90;;;;;;5086016;28;19926;-73
2023/09/11 08:34:35;;;;;;;;;;;22.10;99.90;;;;;;5079616;28;19968;-73
2023/09/11 08:37:02;;;;;;;;;;;22.20;99.90;;;;;;5085592;28;19984;-73
2023/09/11 08:39:30;;;;;;;;;;;22.30;99.90;;;;;;5086253;28;19921;-72
2023/09/11 08:41:58;;;;;;;;;;;22.30;99.90;;;;;;5086311;28;19948;-73
2023/09/11 08:44:24;;;;;;;;;;;22.40;99.90;;;;;;5085985;28;19967;-76
2023/09/11 08:46:52;;;;;;;;;;;22.50;99.90;;;;;;5085876;28;19951;-72
2023/09/11 08:49:21;;;;;;;;;;;22.50;99.90;;;;;;5083324;28;19984;-72
2023/09/11 08:51:49;;;;;;;;;;;22.60;99.90;;;;;;5086015;28;20170;-73
2023/09/11 08:54:16;;;;;;;;;;;22.70;99.90;;;;;;5085256;28;19921;-73
2023/09/11 08:56:45;;;;;;;;;;;22.70;99.90;;;;;;5085663;28;19927;-72
2023/09/11 08:59:12;;;;;;;;;;;22.80;99.90;;;;;;5083915;28;19956;-72
2023/09/11 09:01:39;;;;;;;;;;;22.90;99.90;;;;;;5078646;28;20520;-72
2023/09/11 09:04:07;;;;;;;;;;;23.00;99.90;;;;;;5083995;28;19967;-72
2023/09/11 09:06:35;;;;;;;;;;;23.10;99.90;;;;;;5085145;28;19952;-72
2023/09/11 09:09:01;;;;;;;;;;;23.10;99.90;;;;;;5084887;28;19921;-72
2023/09/11 09:11:29;;;;;;;;;;;23.20;99.90;;;;;;5085616;28;19988;-72
2023/09/11 09:13:57;;;;;;;;;;;23.30;99.90;;;;;;5084863;28;19940;-72
2023/09/11 09:16:23;;;;;;;;;;;23.40;99.90;;;;;;5085413;28;19967;-72
2023/09/11 09:18:50;;;;;;;;;;;23.40;99.90;;;;;;5085142;28;19984;-72
2023/09/11 09:21:17;;;;;;;;;;;23.50;99.90;;;;;;5085470;28;20006;-73
2023/09/11 09:23:43;;;;;;;;;;;23.60;99.90;;;;;;5085125;28;20154;-72
2023/09/11 09:26:10;;;;;;;;;;;23.70;99.90;;;;;;5084706;28;19992;-72
2023/09/11 09:28:43;;;;;;;;;;;23.80;99.90;;;;;;5084885;28;20115;-73
2023/09/11 09:31:12;;;;;;;;;;;23.90;99.90;;;;;;5085104;28;19984;-72
2023/09/11 09:33:39;;;;;;;;;;;24.00;99.90;;;;;;5084953;28;19924;-72
2023/09/11 09:36:07;;;;;;;;;;;24.20;99.90;;;;;;5084613;28;19985;-72
2023/09/11 09:38:34;;;;;;;;;;;24.30;99.90;;;;;;5084610;28;19963;-72
2023/09/11 09:41:09;;;;;;;;;;;24.40;99.90;;;;;;5085004;28;20007;-72
2023/09/11 09:43:35;;;;;;;;;;;24.50;99.90;;;;;;5076964;28;19924;-72
2023/09/11 09:46:17;;;;;;;;;;;24.70;99.90;;;;;;5084150;28;19967;-72
2023/09/11 09:48:45;;;;;;;;;;;24.80;99.90;;;;;;5078098;28;19920;-73
2023/09/11 09:51:12;;;;;;;;;;;24.80;99.90;;;;;;5084832;28;19971;-72
2023/09/11 09:53:41;;;;;;;;;;;24.90;99.90;;;;;;5084957;28;19920;-73
2023/09/11 09:56:08;;;;;;;;;;;24.90;99.90;;;;;;5084268;28;20241;-72
2023/09/11 09:58:36;;;;;;;;;;;25.00;99.90;;;;;;5076528;28;19927;-73
2023/09/11 10:01:03;;;;;;;;;;;25.10;99.90;;;;;;5084187;28;19920;-73
2023/09/11 10:03:37;;;;;;;;;;;25.20;99.90;;;;;;5083883;28;19920;-72
2023/09/11 10:06:07;;;;;;;;;;;25.40;99.90;;;;;;5083501;28;19973;-73
2023/09/11 10:08:34;;;;;;;;;;;25.50;99.90;;;;;;5076998;28;19955;-72
2023/09/11 10:11:01;;;;;;;;;;;25.60;99.90;;;;;;5083983;28;19952;-75
2023/09/11 10:13:30;;;;;;;;;;;25.80;99.90;;;;;;5084530;28;19928;-73
2023/09/11 10:15:57;;;;;;;;;;;25.90;99.90;;;;;;5083973;28;20236;-73
2023/09/11 10:18:24;;;;;;;;;;;26.00;99.90;;;;;;5084318;28;19952;-73
2023/09/11 10:20:51;;;;;;;;;;;26.10;99.90;;;;;;5084157;28;19979;-71
2023/09/11 10:23:20;;;;;;;;;;;26.20;99.90;;;;;;5084295;28;19920;-74
2023/09/11 10:25:49;;;;;;;;;;;26.20;99.90;;;;;;5083912;28;20342;-73
2023/09/11 10:28:20;;;;;;;;;;;26.30;99.90;;;;;;5083489;28;19952;-73
2023/09/11 10:30:50;;;;;;;;;;;26.40;99.90;;;;;;5083837;28;20034;-73
2023/09/11 10:33:20;;;;;;;;;;;26.50;99.90;;;;;;5083779;28;19940;-73
2023/09/11 10:35:48;;;;;;;;;;;26.70;99.90;;;;;;5083998;28;19928;-72
2023/09/11 10:38:15;;;;;;;;;;;26.90;99.90;;;;;;5083548;28;19952;-73
2023/09/11 10:40:44;;;;;;;;;;;27.00;99.90;;;;;;5083900;28;20005;-74
2023/09/11 10:43:12;;;;;;;;;;;27.10;99.90;;;;;;5083987;28;19927;-73
2023/09/11 10:45:39;;;;;;;;;;;27.20;99.90;;;;;;5083470;28;19952;-73
2023/09/11 10:48:05;;;;;;;;;;;27.30;99.90;;;;;;5083995;28;20007;-72
2023/09/11 10:50:36;;;;;;;;;;;27.30;99.90;;;;;;5084144;28;20000;-72
2023/09/11 10:53:04;;;;;;;;;;;27.50;99.90;;;;;;5084047;28;19959;-72
2023/09/11 10:55:30;;;;;;;;;;;27.60;99.90;;;;;;5083696;28;19999;-73
2023/09/11 10:57:59;;;;;;;;;;;27.70;99.90;;;;;;5084065;28;19983;-72
2023/09/11 11:00:26;;;;;;;;;;;27.80;99.90;;;;;;5083728;28;19956;-73
2023/09/11 11:02:53;;;;;;;;;;;27.90;99.90;;;;;;5083999;28;19947;-73
2023/09/11 11:05:20;;;;;;;;;;;28.10;99.90;;;;;;5083704;28;19920;-72
2023/09/11 11:07:48;;;;;;;;;;;28.20;99.90;;;;;;5083319;28;20221;-70
2023/09/11 11:10:17;;;;;;;;;;;28.30;99.90;;;;;;5082155;28;20281;-70
2023/09/11 11:12:45;;;;;;;;;;;28.40;99.90;;;;;;5083068;28;19928;-72
2023/09/11 11:15:20;;;;;;;;;;;28.50;99.90;;;;;;5082954;28;20297;-70
2023/09/11 11:17:47;;;;;;;;;;;28.50;99.90;;;;;;5083215;28;19921;-70
2023/09/11 11:20:16;;;;;;;;;;;28.60;99.90;;;;;;5083095;28;20232;-69
2023/09/11 11:22:43;;;;;;;;;;;28.70;99.90;;;;;;5083347;28;20109;-70
2023/09/11 11:25:10;;;;;;;;;;;28.80;99.90;;;;;;5083335;28;20165;-74
2023/09/11 11:27:38;;;;;;;;;;;28.90;99.90;;;;;;5083062;28;20265;-73
2023/09/11 11:30:05;;;;;;;;;;;28.90;99.90;;;;;;5083110;28;19984;-73
2023/09/11 11:32:34;;;;;;;;;;;29.00;99.90;;;;;;5082872;28;19920;-73
2023/09/11 11:35:02;;;;;;;;;;;29.10;99.90;;;;;;5075797;28;19983;-73
2023/09/11 11:37:31;;;;;;;;;;;29.10;99.90;;;;;;5079928;28;19928;-73
2023/09/11 11:39:57;;;;;;;;;;;29.20;99.90;;;;;;5081167;28;19928;-73
2023/09/11 11:42:24;;;;;;;;;;;29.30;99.90;;;;;;5082913;28;19987;-74
2023/09/11 11:44:51;;;;;;;;;;;29.40;99.90;;;;;;5082273;28;19927;-73
2023/09/11 11:47:19;;;;;;;;;;;29.50;99.90;;;;;;5082407;28;19947;-73
2023/09/11 11:49:49;;;;;;;;;;;29.70;99.90;;;;;;5083007;28;19962;-73
2023/09/11 11:52:16;;;;;;;;;;;29.80;99.90;;;;;;5081905;28;20205;-73
2023/09/11 11:54:42;;;;;;;;;;;29.80;99.90;;;;;;5080517;28;20003;-73
2023/09/11 11:57:09;;;;;;;;;;;30.00;99.90;;;;;;5082738;28;19995;-73
2023/09/11 11:59:37;;;;;;;;;;;30.00;99.90;;;;;;5083241;28;19948;-73
2023/09/11 12:02:04;;;;;;;;;;;30.00;99.90;;;;;;5083132;28;20176;-72
2023/09/11 12:04:31;;;;;;;;;;;30.10;99.90;;;;;;5082536;28;20175;-73
2023/09/11 12:07:00;;;;;;;;;;;30.20;99.90;;;;;;5083017;28;19920;-73
2023/09/11 12:09:27;;;;;;;;;;;30.30;99.90;;;;;;5081584;28;19951;-73
2023/09/11 12:11:53;;;;;;;;;;;30.40;99.90;;;;;;5084286;28;19987;-72
2023/09/11 12:14:20;;;;;;;;;;;30.40;99.90;;;;;;5086031;28;19955;-71
2023/09/11 12:16:47;;;;;;;;;;;30.50;99.90;;;;;;5084274;28;19920;-73
2023/09/11 12:19:13;;;;;;;;;;;30.60;99.90;;;;;;5085351;28;20206;-73
2023/09/11 12:21:41;;;;;;;;;;;30.60;99.90;;;;;;5086315;28;19924;-72
2023/09/11 12:24:10;;;;;;;;;;;30.80;99.90;;;;;;5085986;28;20021;-72
2023/09/11 12:26:37;;;;;;;;;;;31.00;99.90;;;;;;5079762;28;19987;-73
2023/09/11 12:29:04;;;;;;;;;;;31.10;99.90;;;;;;5086009;28;19927;-72
2023/09/11 12:31:31;;;;;;;;;;;31.20;99.90;;;;;;5085787;28;19979;-72
2023/09/11 12:33:58;;;;;;;;;;;31.30;99.90;;;;;;5085526;28;19952;-72
2023/09/11 12:36:25;;;;;;;;;;;31.30;97.90;;;;;;5082806;28;20243;-74
2023/09/11 12:38:51;;;;;;;;;;;31.40;99.90;;;;;;5084090;28;19943;-73
2023/09/11 12:41:20;;;;;;;;;;;31.50;99.90;;;;;;5080074;28;19982;-72
2023/09/11 12:43:47;;;;;;;;;;;31.50;99.90;;;;;;5085657;28;20214;-73
2023/09/11 12:46:14;;;;;;;;;;;31.50;99.90;;;;;;5085712;28;20256;-73
2023/09/11 12:48:41;;;;;;;;;;;31.60;99.90;;;;;;5086071;28;19928;-72
2023/09/11 12:51:08;;;;;;;;;;;31.60;99.90;;;;;;5085546;28;19921;-72
2023/09/11 12:53:35;;;;;;;;;;;31.70;99.80;;;;;;5085319;28;20265;-72
2023/09/11 12:56:02;;;;;;;;;;;31.60;99.90;;;;;;5085294;28;19963;-73
2023/09/11 12:58:30;;;;;;;;;;;31.70;99.90;;;;;;5085546;28;19952;-72
2023/09/11 13:00:57;;;;;;;;;;;31.70;99.90;;;;;;5085314;28;19983;-77
2023/09/11 13:03:24;;;;;;;;;;;31.80;99.90;;;;;;5085545;28;20142;-72
2023/09/11 13:05:50;;;;;;;;;;;31.90;99.90;;;;;;5084675;28;19987;-72
2023/09/11 13:08:17;;;;;;;;;;;31.90;99.90;;;;;;5085212;28;19999;-72
2023/09/11 13:10:44;;;;;;;;;;;32.00;99.90;;;;;;5085385;28;19991;-72
2023/09/11 13:13:10;;;;;;;;;;;32.10;99.90;;;;;;5080823;28;19926;-73
2023/09/11 13:15:38;;;;;;;;;;;32.10;99.90;;;;;;5085227;28;19920;-71
2023/09/11 13:18:05;;;;;;;;;;;32.20;99.90;;;;;;5085273;28;20006;-73
2023/09/11 13:20:32;;;;;;;;;;;32.30;99.90;;;;;;5085062;28;19978;-73
2023/09/11 13:22:58;;;;;;;;;;;32.40;99.70;;;;;;5084724;28;19920;-72
2023/09/11 13:25:25;;;;;;;;;;;32.50;99.90;;;;;;5084191;28;19963;-71
2023/09/11 13:27:52;;;;;;;;;;;32.60;99.90;;;;;;5081795;28;19952;-72
2023/09/11 13:30:18;;;;;;;;;;;32.70;99.90;;;;;;5084629;28;20173;-72
2023/09/11 13:32:46;;;;;;;;;;;32.80;99.30;;;;;;5085070;28;19987;-72
2023/09/11 13:35:13;;;;;;;;;;;32.80;99.30;;;;;;5084339;28;19959;-73
2023/09/11 13:37:39;;;;;;;;;;;32.90;99.90;;;;;;5084900;28;20154;-73
2023/09/11 13:40:07;;;;;;;;;;;33.00;99.70;;;;;;5084876;28;19927;-73
2023/09/11 13:42:33;;;;;;;;;;;33.20;99.30;;;;;;5084511;28;19988;-73
2023/09/11 13:45:00;;;;;;;;;;;33.30;98.50;;;;;;5082776;28;19927;-72
2023/09/11 13:47:27;;;;;;;;;;;33.30;99.10;;;;;;5083751;28;19927;-72
2023/09/11 13:49:55;;;;;;;;;;;33.20;98.70;;;;;;5084607;28;19975;-72
2023/09/11 13:52:21;;;;;;;;;;;33.30;99.60;;;;;;5084440;28;19980;-73
2023/09/11 13:54:48;;;;;;;;;;;33.20;99.50;;;;;;5083937;28;20115;-74
2023/09/11 13:57:14;;;;;;;;;;;33.20;99.70;;;;;;5084130;28;19987;-74
2023/09/11 13:59:41;;;;;;;;;;;33.20;99.30;;;;;;5083522;28;19921;-71
2023/09/11 14:02:08;;;;;;;;;;;33.30;98.70;;;;;;5081760;28;20202;-71
2023/09/11 14:04:34;;;;;;;;;;;33.40;97.80;;;;;;5079668;28;19920;-72
2023/09/11 14:07:03;;;;;;;;;;;33.40;97.70;;;;;;5082873;28;20049;-73
2023/09/11 14:09:29;;;;;;;;;;;33.40;98.30;;;;;;5083010;28;19963;-72
2023/09/11 14:11:56;;;;;;;;;;;33.30;96.90;;;;;;5084149;28;19951;-73
2023/09/11 14:14:23;;;;;;;;;;;33.30;96.80;;;;;;5082902;28;19979;-72
2023/09/11 14:16:49;;;;;;;;;;;33.30;96.70;;;;;;5084067;28;19926;-72